createdAt,value
2022-10-15T00:02:05.324Z,2.72
2022-10-15T00:07:04.042Z,2.47
2022-10-15T00:12:02.214Z,2.55
2022-10-15T00:17:01.880Z,3.33
2022-10-15T00:27:03.228Z,2.92
2022-10-15T00:32:02.991Z,3.33
2022-10-15T00:37:01.636Z,3.22
2022-10-15T00:41:59.953Z,3.05
2022-10-15T00:47:00.910Z,2.70
2022-10-15T00:52:02.338Z,3.70
2022-10-15T00:57:00.768Z,3.53
2022-10-15T01:02:00.334Z,3.20
2022-10-15T01:07:00.156Z,2.92
2022-10-15T01:11:58.402Z,3.50
2022-10-15T01:17:01.704Z,4.25
2022-10-15T01:22:05.062Z,3.25
2022-10-15T01:27:36.669Z,3.25
2022-10-15T01:32:38.188Z,3.72
2022-10-15T01:37:39.033Z,4.10
2022-10-15T01:42:40.313Z,3.38
2022-10-15T01:47:43.960Z,4.43
2022-10-15T01:52:43.158Z,3.08
2022-10-15T01:57:43.485Z,4.18
2022-10-15T02:02:43.330Z,4.13
2022-10-15T02:07:45.170Z,3.90
2022-10-15T02:12:48.433Z,3.67
2022-10-15T02:17:53.042Z,3.72
2022-10-15T02:22:54.436Z,3.45
2022-10-15T02:27:53.723Z,3.55
2022-10-15T02:32:55.199Z,4.13
2022-10-15T02:37:55.068Z,3.20
2022-10-15T02:42:53.434Z,3.70
2022-10-15T02:47:53.039Z,2.97
2022-10-15T02:52:51.306Z,4.18
2022-10-15T02:57:49.696Z,3.85
2022-10-15T03:02:48.242Z,3.92
2022-10-15T03:07:51.483Z,3.13
2022-10-15T03:12:50.661Z,3.53
2022-10-15T03:17:49.127Z,3.60
2022-10-15T03:22:49.153Z,2.88
2022-10-15T03:27:49.748Z,3.13
2022-10-15T03:32:56.204Z,3.85
2022-10-15T03:37:54.480Z,3.10
2022-10-15T03:42:56.562Z,3.20
2022-10-15T03:47:56.121Z,2.85
2022-10-15T03:52:55.424Z,3.30
2022-10-15T03:57:55.292Z,3.08
2022-10-15T04:02:54.299Z,3.15
2022-10-15T04:07:58.066Z,4.97
2022-10-15T04:12:59.252Z,3.72
2022-10-15T04:17:58.599Z,3.97
2022-10-15T04:22:59.266Z,4.47
2022-10-15T04:27:59.489Z,4.50
2022-10-15T04:32:57.906Z,4.25
2022-10-15T04:37:58.533Z,4.90
2022-10-15T04:42:57.112Z,4.72
2022-10-15T04:47:57.787Z,5.53
2022-10-15T04:52:57.256Z,4.93
2022-10-15T04:57:58.978Z,4.05
2022-10-15T05:03:02.609Z,6.05
2022-10-15T05:08:12.316Z,4.80
2022-10-15T05:13:32.614Z,3.85
2022-10-15T05:18:33.783Z,3.47
2022-10-15T05:23:32.571Z,4.05
2022-10-15T05:28:43.879Z,4.60
2022-10-15T05:33:52.833Z,4.60
2022-10-15T05:38:59.055Z,4.20
2022-10-15T05:43:58.442Z,4.45
2022-10-15T05:49:01.527Z,4.60
2022-10-15T05:54:03.074Z,5.00
2022-10-15T05:59:01.359Z,6.32
2022-10-15T06:04:00.941Z,7.13
2022-10-15T06:09:03.056Z,7.15
2022-10-15T06:14:01.336Z,7.65
2022-10-15T06:19:01.275Z,9.68
2022-10-15T06:24:02.292Z,10.13
2022-10-15T06:29:02.701Z,8.95
2022-10-15T06:34:04.863Z,8.50
2022-10-15T06:39:03.843Z,7.10
2022-10-15T06:44:02.226Z,7.40
2022-10-15T06:49:00.432Z,7.88
2022-10-15T06:54:00.165Z,8.73
2022-10-15T06:58:59.468Z,9.52
2022-10-15T07:03:57.797Z,8.30
2022-10-15T07:08:55.961Z,8.90
2022-10-15T07:13:58.129Z,7.82
2022-10-15T07:18:56.445Z,8.18
2022-10-15T07:23:54.712Z,7.40
2022-10-15T07:28:53.189Z,8.02
2022-10-15T07:33:52.833Z,8.30
2022-10-15T07:38:51.054Z,6.32
2022-10-15T07:43:49.810Z,8.57
2022-10-15T07:48:48.135Z,7.82
2022-10-15T07:53:48.455Z,6.78
2022-10-15T07:58:51.819Z,7.50
2022-10-15T08:03:50.127Z,6.63
2022-10-15T08:08:49.796Z,6.05
2022-10-15T08:13:49.108Z,5.45
2022-10-15T08:18:47.429Z,8.50
2022-10-15T08:23:45.714Z,6.75
2022-10-15T08:28:45.326Z,7.35
2022-10-15T08:33:44.481Z,7.43
2022-10-15T08:38:42.687Z,13.38
2022-10-15T08:43:42.073Z,8.13
2022-10-15T08:48:48.608Z,6.72
2022-10-15T08:53:49.669Z,7.82
2022-10-15T08:58:52.431Z,8.30
2022-10-15T09:03:56.436Z,6.72
2022-10-15T09:09:00.800Z,7.32
2022-10-15T09:13:59.064Z,6.57
2022-10-15T09:18:59.830Z,6.70
2022-10-15T09:23:59.707Z,6.15
2022-10-15T09:29:01.601Z,7.28
2022-10-15T09:34:04.741Z,6.63
2022-10-15T09:39:07.520Z,5.25
2022-10-15T09:44:14.291Z,5.32
2022-10-15T09:49:21.692Z,5.57
2022-10-15T09:54:28.350Z,6.13
2022-10-15T09:59:26.742Z,4.70
2022-10-15T10:04:27.387Z,4.80
2022-10-15T10:09:26.767Z,5.05
2022-10-15T10:14:29.498Z,4.50
2022-10-15T10:19:31.372Z,5.25
2022-10-15T10:24:32.998Z,5.55
2022-10-15T10:29:35.125Z,5.03
2022-10-15T10:34:36.269Z,5.03
2022-10-15T10:39:37.453Z,5.53
2022-10-15T10:44:37.105Z,5.35
2022-10-15T10:49:37.797Z,4.97
2022-10-15T10:54:39.011Z,4.30
2022-10-15T10:59:42.585Z,4.45
2022-10-15T11:04:44.937Z,3.90
2022-10-15T11:14:50.550Z,4.07
2022-10-15T11:25:22.332Z,4.03
2022-10-15T11:30:31.172Z,3.97
2022-10-15T11:35:52.314Z,4.63
2022-10-15T11:41:04.907Z,5.60
2022-10-15T11:46:08.234Z,4.20
2022-10-15T11:51:15.961Z,7.20
2022-10-15T11:56:15.978Z,4.80
2022-10-15T12:01:16.838Z,4.20
2022-10-15T12:06:17.764Z,4.75
2022-10-15T12:11:22.704Z,4.38
2022-10-15T12:16:25.056Z,4.25
2022-10-15T12:21:43.972Z,3.50
2022-10-15T12:26:43.769Z,3.88
2022-10-15T12:31:46.940Z,3.67
2022-10-15T12:36:45.406Z,3.92
2022-10-15T12:41:46.556Z,3.70
2022-10-15T12:46:44.722Z,5.25
2022-10-15T12:51:43.157Z,3.83
2022-10-15T12:56:41.918Z,4.28
2022-10-15T13:01:53.354Z,4.28
2022-10-15T13:06:52.266Z,6.20
2022-10-15T13:16:56.062Z,4.80
2022-10-15T13:21:55.672Z,7.68
2022-10-15T13:26:57.315Z,4.93
2022-10-15T13:31:58.065Z,5.07
2022-10-15T13:36:57.637Z,6.10
2022-10-15T13:42:05.923Z,4.93
2022-10-15T13:47:18.389Z,4.82
2022-10-15T13:52:16.645Z,11.45
2022-10-15T13:57:17.930Z,4.32
2022-10-15T14:02:17.640Z,6.65
2022-10-15T14:07:27.689Z,5.15
2022-10-15T14:12:26.772Z,7.18
2022-10-15T14:17:27.620Z,4.55
2022-10-15T14:22:27.540Z,4.85
2022-10-15T14:27:26.947Z,5.10
2022-10-15T14:32:27.800Z,4.95
2022-10-15T14:37:29.997Z,5.53
2022-10-15T14:42:29.575Z,6.22
2022-10-15T14:47:32.682Z,5.43
2022-10-15T14:57:33.000Z,5.30
2022-10-15T15:02:32.771Z,7.03
2022-10-15T15:07:30.983Z,6.25
2022-10-15T15:12:31.378Z,6.00
2022-10-15T15:17:33.304Z,7.43
2022-10-15T15:22:34.155Z,6.90
2022-10-15T15:27:37.190Z,15.40
2022-10-15T15:32:35.473Z,12.27
2022-10-15T15:37:35.174Z,8.02
2022-10-15T15:42:34.474Z,7.85
2022-10-15T15:47:32.732Z,6.93
2022-10-15T15:52:33.973Z,6.10
2022-10-15T15:57:36.457Z,7.83
2022-10-15T16:02:34.772Z,8.10
2022-10-15T16:07:33.564Z,7.45
2022-10-15T16:12:36.748Z,9.07
2022-10-15T16:17:36.514Z,9.10
2022-10-15T16:22:34.817Z,7.82
2022-10-15T16:27:34.550Z,8.57
2022-10-15T16:32:32.881Z,8.40
2022-10-15T16:37:32.605Z,8.70
2022-10-15T16:42:31.077Z,9.15
2022-10-15T16:47:29.330Z,9.32
2022-10-15T16:52:27.897Z,9.65
2022-10-15T16:57:27.931Z,10.93
2022-10-15T17:02:26.527Z,9.40
2022-10-15T17:07:25.363Z,9.57
2022-10-15T17:12:24.018Z,9.35
2022-10-15T17:17:24.008Z,8.98
2022-10-15T17:22:22.445Z,8.90
2022-10-15T17:27:20.815Z,10.90
2022-10-15T17:32:19.153Z,10.23
2022-10-15T17:37:18.853Z,8.52
2022-10-15T17:42:18.648Z,8.20
2022-10-15T17:47:17.021Z,6.15
2022-10-15T17:52:15.590Z,5.28
2022-10-15T17:57:17.359Z,4.85
2022-10-15T18:02:17.538Z,4.50
2022-10-15T18:07:21.070Z,5.05
2022-10-15T18:12:20.662Z,5.13
2022-10-15T18:17:19.548Z,4.75
2022-10-15T18:22:17.733Z,4.97
2022-10-15T18:27:15.972Z,6.22
2022-10-15T18:32:15.684Z,7.82
2022-10-15T18:37:13.863Z,4.88
2022-10-15T18:42:12.111Z,5.30
2022-10-15T18:47:12.848Z,7.90
2022-10-15T18:52:21.901Z,5.18
2022-10-15T18:57:35.228Z,6.22
2022-10-15T19:02:33.801Z,6.20
2022-10-15T19:07:33.606Z,7.20
2022-10-15T19:12:31.757Z,6.18
2022-10-15T19:17:30.055Z,6.82
2022-10-15T19:22:30.061Z,9.05
2022-10-15T19:27:29.800Z,11.02
2022-10-15T19:32:28.002Z,11.13
2022-10-15T19:37:26.861Z,11.43
2022-10-15T19:42:25.453Z,9.32
2022-10-15T19:47:25.689Z,9.13
2022-10-15T19:52:24.060Z,7.68
2022-10-15T19:57:23.407Z,5.70
2022-10-15T20:02:21.760Z,5.18
2022-10-15T20:07:21.375Z,5.93
2022-10-15T20:12:19.539Z,5.95
2022-10-15T20:17:18.890Z,5.93
2022-10-15T20:22:17.097Z,7.55
2022-10-15T20:27:16.667Z,5.20
2022-10-15T20:32:30.416Z,6.18
2022-10-15T20:37:32.697Z,4.43
2022-10-15T20:42:34.157Z,4.28
2022-10-15T20:47:33.525Z,4.22
2022-10-15T20:52:31.828Z,5.05
2022-10-15T20:57:30.309Z,4.90
2022-10-15T21:02:30.533Z,3.90
2022-10-15T21:07:28.765Z,4.65
2022-10-15T21:12:29.777Z,4.15
2022-10-15T21:17:29.700Z,9.32
2022-10-15T21:22:27.881Z,7.03
2022-10-15T21:27:26.209Z,4.00
2022-10-15T21:32:24.663Z,3.50
2022-10-15T21:37:24.573Z,3.53
2022-10-15T21:42:23.013Z,4.18
2022-10-15T21:47:21.213Z,4.53
2022-10-15T21:52:19.407Z,3.92
2022-10-15T21:57:19.033Z,3.83
2022-10-15T22:07:20.300Z,7.32
2022-10-15T22:12:21.245Z,9.85
2022-10-15T22:17:20.933Z,9.65
2022-10-15T22:22:19.119Z,8.43
2022-10-15T22:27:17.264Z,5.97
2022-10-15T22:32:16.793Z,7.47
2022-10-15T22:37:14.957Z,6.32
2022-10-15T22:42:13.150Z,6.93
2022-10-15T22:47:11.417Z,5.30
2022-10-15T22:52:11.733Z,7.32
2022-10-15T22:57:09.928Z,8.10
2022-10-15T23:02:08.269Z,8.93
2022-10-15T23:07:06.428Z,6.38
2022-10-15T23:12:09.744Z,5.35
2022-10-15T23:17:08.213Z,6.43
2022-10-15T23:22:06.548Z,5.63
2022-10-15T23:27:06.280Z,4.82
2022-10-15T23:32:04.571Z,4.82
2022-10-15T23:37:02.845Z,7.28
2022-10-15T23:42:00.999Z,8.52
2022-10-15T23:47:00.582Z,8.88
2022-10-15T23:51:59.580Z,7.03
2022-10-15T23:56:57.844Z,5.63
